sensor_id;sensor_type;location;lat;lon;timestamp;P1;durP1;ratioP1;P2;durP2;ratioP2
26540;SDS011;14206;50.202;10.948;2023-03-31T00:00:12;5.55;;;1.83;;
26540;SDS011;14206;50.202;10.948;2023-03-31T00:02:39;3.63;;;1.83;;
26540;SDS011;14206;50.202;10.948;2023-03-31T00:05:07;4.07;;;1.55;;
26540;SDS011;14206;50.202;10.948;2023-03-31T00:07:35;3.05;;;1.25;;
26540;SDS011;14206;50.202;10.948;2023-03-31T00:10:05;4.13;;;1.58;;
26540;SDS011;14206;50.202;10.948;2023-03-31T00:12:43;2.53;;;1.25;;
26540;SDS011;14206;50.202;10.948;2023-03-31T00:15:11;4.63;;;1.30;;
26540;SDS011;14206;50.202;10.948;2023-03-31T00:17:38;3.92;;;1.63;;
26540;SDS011;14206;50.202;10.948;2023-03-31T00:20:05;3.85;;;1.38;;
26540;SDS011;14206;50.202;10.948;2023-03-31T00:22:37;3.53;;;1.40;;
26540;SDS011;14206;50.202;10.948;2023-03-31T00:25:08;3.03;;;1.33;;
26540;SDS011;14206;50.202;10.948;2023-03-31T00:27:36;3.80;;;1.25;;
26540;SDS011;14206;50.202;10.948;2023-03-31T00:30:03;4.22;;;1.10;;
26540;SDS011;14206;50.202;10.948;2023-03-31T00:32:31;3.25;;;1.27;;
26540;SDS011;14206;50.202;10.948;2023-03-31T00:34:58;4.30;;;1.25;;
26540;SDS011;14206;50.202;10.948;2023-03-31T00:37:27;5.88;;;1.60;;
26540;SDS011;14206;50.202;10.948;2023-03-31T00:39:55;4.50;;;1.67;;
26540;SDS011;14206;50.202;10.948;2023-03-31T00:42:22;5.43;;;1.30;;
26540;SDS011;14206;50.202;10.948;2023-03-31T00:47:45;6.70;;;1.73;;
26540;SDS011;14206;50.202;10.948;2023-03-31T00:50:16;6.13;;;1.48;;
26540;SDS011;14206;50.202;10.948;2023-03-31T00:52:56;4.63;;;1.50;;
26540;SDS011;14206;50.202;10.948;2023-03-31T00:55:33;3.13;;;1.30;;
26540;SDS011;14206;50.202;10.948;2023-03-31T00:58:05;3.30;;;1.17;;
26540;SDS011;14206;50.202;10.948;2023-03-31T01:00:33;7.45;;;1.85;;
26540;SDS011;14206;50.202;10.948;2023-03-31T01:03:02;4.13;;;1.27;;
26540;SDS011;14206;50.202;10.948;2023-03-31T01:05:39;3.55;;;1.25;;
26540;SDS011;14206;50.202;10.948;2023-03-31T01:08:11;4.50;;;1.10;;
26540;SDS011;14206;50.202;10.948;2023-03-31T01:10:40;3.53;;;1.27;;
26540;SDS011;14206;50.202;10.948;2023-03-31T01:13:12;2.58;;;1.17;;
26540;SDS011;14206;50.202;10.948;2023-03-31T01:15:40;2.78;;;1.20;;
26540;SDS011;14206;50.202;10.948;2023-03-31T01:18:08;5.28;;;1.13;;
26540;SDS011;14206;50.202;10.948;2023-03-31T01:48:19;4.45;;;1.33;;
26540;SDS011;14206;50.202;10.948;2023-03-31T01:51:00;3.30;;;1.17;;
26540;SDS011;14206;50.202;10.948;2023-03-31T01:53:49;2.47;;;1.13;;
26540;SDS011;14206;50.202;10.948;2023-03-31T01:59:12;2.90;;;1.08;;
26540;SDS011;14206;50.202;10.948;2023-03-31T02:02:07;3.75;;;1.10;;
26540;SDS011;14206;50.202;10.948;2023-03-31T02:04:49;2.08;;;1.20;;
26540;SDS011;14206;50.202;10.948;2023-03-31T02:07:34;2.63;;;1.23;;
26540;SDS011;14206;50.202;10.948;2023-03-31T02:10:07;2.95;;;1.38;;
26540;SDS011;14206;50.202;10.948;2023-03-31T02:12:37;4.35;;;1.48;;
26540;SDS011;14206;50.202;10.948;2023-03-31T02:15:09;2.45;;;1.25;;
26540;SDS011;14206;50.202;10.948;2023-03-31T02:17:41;3.00;;;1.30;;
26540;SDS011;14206;50.202;10.948;2023-03-31T02:20:11;2.60;;;1.20;;
26540;SDS011;14206;50.202;10.948;2023-03-31T02:22:42;1.92;;;0.95;;
26540;SDS011;14206;50.202;10.948;2023-03-31T02:25:13;1.65;;;1.00;;
26540;SDS011;14206;50.202;10.948;2023-03-31T02:27:43;2.70;;;1.00;;
26540;SDS011;14206;50.202;10.948;2023-03-31T02:30:15;2.17;;;1.10;;
26540;SDS011;14206;50.202;10.948;2023-03-31T02:32:42;2.05;;;0.90;;
26540;SDS011;14206;50.202;10.948;2023-03-31T02:35:16;2.45;;;1.00;;
26540;SDS011;14206;50.202;10.948;2023-03-31T02:37:46;3.63;;;1.30;;
26540;SDS011;14206;50.202;10.948;2023-03-31T02:40:18;2.85;;;1.20;;
26540;SDS011;14206;50.202;10.948;2023-03-31T02:42:47;2.13;;;0.93;;
26540;SDS011;14206;50.202;10.948;2023-03-31T02:48:26;3.15;;;0.98;;
26540;SDS011;14206;50.202;10.948;2023-03-31T03:05:18;2.47;;;0.80;;
26540;SDS011;14206;50.202;10.948;2023-03-31T03:08:28;1.13;;;0.80;;
26540;SDS011;14206;50.202;10.948;2023-03-31T03:11:24;1.73;;;0.90;;
26540;SDS011;14206;50.202;10.948;2023-03-31T03:17:12;1.80;;;0.90;;
26540;SDS011;14206;50.202;10.948;2023-03-31T03:19:49;0.95;;;0.70;;
26540;SDS011;14206;50.202;10.948;2023-03-31T03:22:20;1.63;;;0.90;;
26540;SDS011;14206;50.202;10.948;2023-03-31T03:24:48;2.90;;;1.00;;
26540;SDS011;14206;50.202;10.948;2023-03-31T03:27:14;2.10;;;1.00;;
26540;SDS011;14206;50.202;10.948;2023-03-31T03:29:41;3.53;;;1.42;;
26540;SDS011;14206;50.202;10.948;2023-03-31T03:32:09;2.47;;;1.00;;
26540;SDS011;14206;50.202;10.948;2023-03-31T03:34:36;2.42;;;1.00;;
26540;SDS011;14206;50.202;10.948;2023-03-31T03:37:03;3.10;;;1.13;;
26540;SDS011;14206;50.202;10.948;2023-03-31T03:39:29;1.30;;;0.85;;
26540;SDS011;14206;50.202;10.948;2023-03-31T03:41:57;1.73;;;1.00;;
26540;SDS011;14206;50.202;10.948;2023-03-31T03:44:23;1.83;;;0.90;;
26540;SDS011;14206;50.202;10.948;2023-03-31T03:46:50;4.40;;;1.40;;
26540;SDS011;14206;50.202;10.948;2023-03-31T03:49:17;3.08;;;1.20;;
26540;SDS011;14206;50.202;10.948;2023-03-31T03:51:45;1.95;;;1.00;;
26540;SDS011;14206;50.202;10.948;2023-03-31T03:54:12;2.67;;;1.05;;
26540;SDS011;14206;50.202;10.948;2023-03-31T03:56:39;3.15;;;1.20;;
26540;SDS011;14206;50.202;10.948;2023-03-31T03:59:06;3.60;;;1.40;;
26540;SDS011;14206;50.202;10.948;2023-03-31T04:01:33;4.22;;;1.50;;
26540;SDS011;14206;50.202;10.948;2023-03-31T04:04:00;3.10;;;1.40;;
26540;SDS011;14206;50.202;10.948;2023-03-31T04:06:27;2.20;;;1.40;;
26540;SDS011;14206;50.202;10.948;2023-03-31T04:08:54;3.83;;;1.40;;
26540;SDS011;14206;50.202;10.948;2023-03-31T04:11:20;2.67;;;1.35;;
26540;SDS011;14206;50.202;10.948;2023-03-31T04:13:48;5.32;;;1.60;;
26540;SDS011;14206;50.202;10.948;2023-03-31T04:16:15;4.65;;;1.48;;
26540;SDS011;14206;50.202;10.948;2023-03-31T04:18:42;5.70;;;1.75;;
26540;SDS011;14206;50.202;10.948;2023-03-31T04:21:10;3.92;;;1.48;;
26540;SDS011;14206;50.202;10.948;2023-03-31T04:23:40;3.65;;;1.75;;
26540;SDS011;14206;50.202;10.948;2023-03-31T04:26:12;3.28;;;1.40;;
26540;SDS011;14206;50.202;10.948;2023-03-31T04:28:40;3.60;;;1.52;;
26540;SDS011;14206;50.202;10.948;2023-03-31T04:31:08;2.72;;;1.50;;
26540;SDS011;14206;50.202;10.948;2023-03-31T04:33:35;5.00;;;1.38;;
26540;SDS011;14206;50.202;10.948;2023-03-31T04:36:05;3.75;;;1.63;;
26540;SDS011;14206;50.202;10.948;2023-03-31T04:38:45;3.08;;;1.48;;
26540;SDS011;14206;50.202;10.948;2023-03-31T04:41:20;4.45;;;1.60;;
26540;SDS011;14206;50.202;10.948;2023-03-31T04:43:47;4.90;;;1.60;;
26540;SDS011;14206;50.202;10.948;2023-03-31T04:46:14;3.92;;;1.63;;
26540;SDS011;14206;50.202;10.948;2023-03-31T04:48:41;4.05;;;1.50;;
26540;SDS011;14206;50.202;10.948;2023-03-31T04:51:08;3.45;;;1.60;;
26540;SDS011;14206;50.202;10.948;2023-03-31T04:53:35;4.60;;;1.85;;
26540;SDS011;14206;50.202;10.948;2023-03-31T04:56:02;3.25;;;1.60;;
26540;SDS011;14206;50.202;10.948;2023-03-31T04:58:30;4.55;;;1.45;;
26540;SDS011;14206;50.202;10.948;2023-03-31T05:00:57;3.63;;;1.50;;
26540;SDS011;14206;50.202;10.948;2023-03-31T05:03:24;6.00;;;1.67;;
26540;SDS011;14206;50.202;10.948;2023-03-31T05:05:51;3.40;;;1.35;;
26540;SDS011;14206;50.202;10.948;2023-03-31T05:08:18;5.18;;;1.60;;
26540;SDS011;14206;50.202;10.948;2023-03-31T05:10:46;5.43;;;1.40;;
26540;SDS011;14206;50.202;10.948;2023-03-31T05:13:13;6.88;;;2.08;;
26540;SDS011;14206;50.202;10.948;2023-03-31T05:15:39;3.58;;;1.88;;
26540;SDS011;14206;50.202;10.948;2023-03-31T05:18:06;5.00;;;1.60;;
26540;SDS011;14206;50.202;10.948;2023-03-31T05:20:33;3.15;;;1.42;;
26540;SDS011;14206;50.202;10.948;2023-03-31T05:23:00;5.20;;;1.83;;
26540;SDS011;14206;50.202;10.948;2023-03-31T05:25:27;6.35;;;1.70;;
26540;SDS011;14206;50.202;10.948;2023-03-31T05:27:58;3.25;;;1.73;;
26540;SDS011;14206;50.202;10.948;2023-03-31T05:30:26;3.53;;;1.50;;
26540;SDS011;14206;50.202;10.948;2023-03-31T05:32:54;5.72;;;1.63;;
26540;SDS011;14206;50.202;10.948;2023-03-31T05:35:21;7.22;;;2.08;;
26540;SDS011;14206;50.202;10.948;2023-03-31T05:37:48;5.72;;;1.88;;
26540;SDS011;14206;50.202;10.948;2023-03-31T05:40:16;5.00;;;2.08;;
26540;SDS011;14206;50.202;10.948;2023-03-31T05:42:43;4.53;;;1.67;;
26540;SDS011;14206;50.202;10.948;2023-03-31T05:45:10;5.10;;;2.00;;
26540;SDS011;14206;50.202;10.948;2023-03-31T05:47:37;4.28;;;1.65;;
26540;SDS011;14206;50.202;10.948;2023-03-31T05:50:05;6.72;;;1.98;;
26540;SDS011;14206;50.202;10.948;2023-03-31T05:52:34;5.95;;;1.92;;
26540;SDS011;14206;50.202;10.948;2023-03-31T05:55:02;4.90;;;1.90;;
26540;SDS011;14206;50.202;10.948;2023-03-31T05:57:29;3.67;;;1.98;;
26540;SDS011;14206;50.202;10.948;2023-03-31T05:59:56;5.85;;;1.73;;
26540;SDS011;14206;50.202;10.948;2023-03-31T06:02:23;3.80;;;1.75;;
26540;SDS011;14206;50.202;10.948;2023-03-31T06:04:51;5.68;;;1.85;;
26540;SDS011;14206;50.202;10.948;2023-03-31T06:07:17;4.45;;;1.98;;
26540;SDS011;14206;50.202;10.948;2023-03-31T06:09:44;4.45;;;1.77;;
26540;SDS011;14206;50.202;10.948;2023-03-31T06:12:11;5.00;;;1.90;;
26540;SDS011;14206;50.202;10.948;2023-03-31T06:14:39;5.70;;;1.83;;
26540;SDS011;14206;50.202;10.948;2023-03-31T06:17:05;3.25;;;1.60;;
26540;SDS011;14206;50.202;10.948;2023-03-31T06:19:33;5.72;;;1.90;;
26540;SDS011;14206;50.202;10.948;2023-03-31T06:22:00;5.07;;;1.80;;
26540;SDS011;14206;50.202;10.948;2023-03-31T06:24:27;5.22;;;1.60;;
26540;SDS011;14206;50.202;10.948;2023-03-31T06:26:53;6.75;;;1.90;;
26540;SDS011;14206;50.202;10.948;2023-03-31T06:29:20;5.85;;;1.80;;
26540;SDS011;14206;50.202;10.948;2023-03-31T06:31:47;4.80;;;2.25;;
26540;SDS011;14206;50.202;10.948;2023-03-31T06:34:14;4.88;;;1.90;;
26540;SDS011;14206;50.202;10.948;2023-03-31T06:36:44;6.43;;;2.08;;
26540;SDS011;14206;50.202;10.948;2023-03-31T06:39:11;3.47;;;1.60;;
26540;SDS011;14206;50.202;10.948;2023-03-31T06:41:38;5.32;;;2.17;;
26540;SDS011;14206;50.202;10.948;2023-03-31T06:44:05;5.82;;;1.92;;
26540;SDS011;14206;50.202;10.948;2023-03-31T06:46:31;4.47;;;1.95;;
26540;SDS011;14206;50.202;10.948;2023-03-31T06:48:58;3.08;;;1.60;;
26540;SDS011;14206;50.202;10.948;2023-03-31T06:51:25;6.45;;;2.28;;
26540;SDS011;14206;50.202;10.948;2023-03-31T06:53:52;5.75;;;1.70;;
26540;SDS011;14206;50.202;10.948;2023-03-31T06:56:19;6.30;;;2.00;;
26540;SDS011;14206;50.202;10.948;2023-03-31T06:58:46;4.45;;;1.52;;
26540;SDS011;14206;50.202;10.948;2023-03-31T07:01:12;2.38;;;1.67;;
26540;SDS011;14206;50.202;10.948;2023-03-31T07:03:39;4.28;;;1.80;;
26540;SDS011;14206;50.202;10.948;2023-03-31T07:06:06;4.88;;;1.75;;
26540;SDS011;14206;50.202;10.948;2023-03-31T07:08:33;5.47;;;1.80;;
26540;SDS011;14206;50.202;10.948;2023-03-31T07:11:00;5.60;;;1.70;;
26540;SDS011;14206;50.202;10.948;2023-03-31T07:13:27;4.10;;;1.90;;
26540;SDS011;14206;50.202;10.948;2023-03-31T07:15:54;4.15;;;1.80;;
26540;SDS011;14206;50.202;10.948;2023-03-31T07:18:22;5.57;;;2.10;;
26540;SDS011;14206;50.202;10.948;2023-03-31T07:20:51;4.20;;;2.00;;
26540;SDS011;14206;50.202;10.948;2023-03-31T07:23:18;4.95;;;1.98;;
26540;SDS011;14206;50.202;10.948;2023-03-31T07:25:46;3.85;;;1.90;;
26540;SDS011;14206;50.202;10.948;2023-03-31T07:28:13;7.15;;;2.22;;
26540;SDS011;14206;50.202;10.948;2023-03-31T07:30:41;9.00;;;2.00;;
26540;SDS011;14206;50.202;10.948;2023-03-31T07:33:08;4.63;;;2.00;;
26540;SDS011;14206;50.202;10.948;2023-03-31T07:35:39;5.90;;;2.25;;
26540;SDS011;14206;50.202;10.948;2023-03-31T07:38:10;3.45;;;1.92;;
26540;SDS011;14206;50.202;10.948;2023-03-31T07:40:38;6.55;;;2.17;;
26540;SDS011;14206;50.202;10.948;2023-03-31T07:43:05;6.15;;;2.50;;
26540;SDS011;14206;50.202;10.948;2023-03-31T07:45:34;4.85;;;1.95;;
26540;SDS011;14206;50.202;10.948;2023-03-31T07:48:01;5.60;;;2.20;;
26540;SDS011;14206;50.202;10.948;2023-03-31T07:50:28;5.18;;;2.08;;
26540;SDS011;14206;50.202;10.948;2023-03-31T07:52:57;6.00;;;2.08;;
26540;SDS011;14206;50.202;10.948;2023-03-31T07:55:24;6.88;;;2.20;;
26540;SDS011;14206;50.202;10.948;2023-03-31T07:57:51;5.82;;;2.45;;
26540;SDS011;14206;50.202;10.948;2023-03-31T08:00:19;5.32;;;2.25;;
26540;SDS011;14206;50.202;10.948;2023-03-31T08:02:46;4.32;;;2.15;;
26540;SDS011;14206;50.202;10.948;2023-03-31T08:05:14;7.90;;;2.83;;
26540;SDS011;14206;50.202;10.948;2023-03-31T08:07:43;6.43;;;2.60;;
26540;SDS011;14206;50.202;10.948;2023-03-31T08:10:13;4.93;;;2.42;;
26540;SDS011;14206;50.202;10.948;2023-03-31T08:12:43;7.95;;;2.85;;
26540;SDS011;14206;50.202;10.948;2023-03-31T08:15:10;4.43;;;2.45;;
26540;SDS011;14206;50.202;10.948;2023-03-31T08:17:37;6.75;;;2.60;;
26540;SDS011;14206;50.202;10.948;2023-03-31T08:20:04;6.20;;;2.53;;
26540;SDS011;14206;50.202;10.948;2023-03-31T08:22:33;4.25;;;2.30;;
26540;SDS011;14206;50.202;10.948;2023-03-31T08:25:00;6.38;;;2.47;;
26540;SDS011;14206;50.202;10.948;2023-03-31T08:27:28;5.93;;;2.60;;
26540;SDS011;14206;50.202;10.948;2023-03-31T08:29:58;4.18;;;2.50;;
26540;SDS011;14206;50.202;10.948;2023-03-31T08:32:28;6.32;;;2.60;;
26540;SDS011;14206;50.202;10.948;2023-03-31T08:34:57;8.00;;;2.53;;
26540;SDS011;14206;50.202;10.948;2023-03-31T08:37:24;6.80;;;2.53;;
26540;SDS011;14206;50.202;10.948;2023-03-31T08:39:53;7.35;;;2.50;;
26540;SDS011;14206;50.202;10.948;2023-03-31T08:42:29;4.70;;;2.45;;
26540;SDS011;14206;50.202;10.948;2023-03-31T08:47:48;5.72;;;2.75;;
26540;SDS011;14206;50.202;10.948;2023-03-31T08:50:21;8.52;;;3.17;;
26540;SDS011;14206;50.202;10.948;2023-03-31T08:53:01;7.10;;;2.83;;
26540;SDS011;14206;50.202;10.948;2023-03-31T08:55:50;8.70;;;3.20;;
26540;SDS011;14206;50.202;10.948;2023-03-31T08:58:32;4.45;;;3.03;;
26540;SDS011;14206;50.202;10.948;2023-03-31T09:04:21;6.43;;;3.30;;
26540;SDS011;14206;50.202;10.948;2023-03-31T09:16:03;7.20;;;3.60;;
26540;SDS011;14206;50.202;10.948;2023-03-31T09:18:42;5.97;;;3.80;;
26540;SDS011;14206;50.202;10.948;2023-03-31T09:21:20;6.95;;;3.80;;
26540;SDS011;14206;50.202;10.948;2023-03-31T09:24:44;8.70;;;4.05;;
26540;SDS011;14206;50.202;10.948;2023-03-31T09:26:57;8.43;;;3.80;;
26540;SDS011;14206;50.202;10.948;2023-03-31T09:29:42;6.97;;;3.90;;
26540;SDS011;14206;50.202;10.948;2023-03-31T09:32:19;6.22;;;4.10;;
26540;SDS011;14206;50.202;10.948;2023-03-31T09:34:51;5.97;;;4.15;;
26540;SDS011;14206;50.202;10.948;2023-03-31T09:37:24;8.95;;;4.85;;
26540;SDS011;14206;50.202;10.948;2023-03-31T09:39:53;7.70;;;4.28;;
26540;SDS011;14206;50.202;10.948;2023-03-31T09:42:19;9.55;;;4.35;;
26540;SDS011;14206;50.202;10.948;2023-03-31T09:44:46;8.50;;;4.55;;
26540;SDS011;14206;50.202;10.948;2023-03-31T09:47:24;6.85;;;4.05;;
26540;SDS011;14206;50.202;10.948;2023-03-31T09:49:58;6.95;;;4.13;;
26540;SDS011;14206;50.202;10.948;2023-03-31T09:52:39;8.70;;;4.55;;
26540;SDS011;14206;50.202;10.948;2023-03-31T09:55:32;7.15;;;4.03;;
26540;SDS011;14206;50.202;10.948;2023-03-31T09:58:12;7.13;;;3.90;;
26540;SDS011;14206;50.202;10.948;2023-03-31T10:00:43;6.63;;;3.65;;
26540;SDS011;14206;50.202;10.948;2023-03-31T10:03:27;6.95;;;3.80;;
26540;SDS011;14206;50.202;10.948;2023-03-31T10:05:56;5.95;;;3.50;;
26540;SDS011;14206;50.202;10.948;2023-03-31T10:08:37;7.90;;;2.97;;
26540;SDS011;14206;50.202;10.948;2023-03-31T10:11:09;6.40;;;3.20;;
26540;SDS011;14206;50.202;10.948;2023-03-31T10:13:40;6.70;;;3.42;;
26540;SDS011;14206;50.202;10.948;2023-03-31T10:16:10;4.38;;;3.10;;
26540;SDS011;14206;50.202;10.948;2023-03-31T10:18:40;5.07;;;3.15;;
26540;SDS011;14206;50.202;10.948;2023-03-31T10:21:17;4.97;;;2.80;;
26540;SDS011;14206;50.202;10.948;2023-03-31T10:23:53;5.43;;;2.75;;
26540;SDS011;14206;50.202;10.948;2023-03-31T10:26:21;3.97;;;2.70;;
26540;SDS011;14206;50.202;10.948;2023-03-31T10:28:51;5.63;;;2.70;;
26540;SDS011;14206;50.202;10.948;2023-03-31T10:31:24;4.57;;;2.53;;
26540;SDS011;14206;50.202;10.948;2023-03-31T10:33:53;3.60;;;2.47;;
26540;SDS011;14206;50.202;10.948;2023-03-31T10:36:21;5.03;;;2.65;;
26540;SDS011;14206;50.202;10.948;2023-03-31T10:38:52;6.03;;;2.67;;
26540;SDS011;14206;50.202;10.948;2023-03-31T10:41:20;4.90;;;2.47;;
26540;SDS011;14206;50.202;10.948;2023-03-31T10:43:51;4.35;;;2.00;;
26540;SDS011;14206;50.202;10.948;2023-03-31T10:46:20;1.60;;;1.15;;
26540;SDS011;14206;50.202;10.948;2023-03-31T10:51:56;1.90;;;1.23;;
26540;SDS011;14206;50.202;10.948;2023-03-31T10:54:25;2.38;;;1.02;;
26540;SDS011;14206;50.202;10.948;2023-03-31T10:56:59;2.10;;;0.80;;
26540;SDS011;14206;50.202;10.948;2023-03-31T11:10:59;1.75;;;1.00;;
26540;SDS011;14206;50.202;10.948;2023-03-31T11:21:43;0.85;;;0.70;;
26540;SDS011;14206;50.202;10.948;2023-03-31T11:29:41;1.15;;;0.70;;
26540;SDS011;14206;50.202;10.948;2023-03-31T11:32:25;1.73;;;0.80;;
26540;SDS011;14206;50.202;10.948;2023-03-31T11:35:08;3.05;;;0.90;;
26540;SDS011;14206;50.202;10.948;2023-03-31T11:37:56;1.00;;;0.70;;
26540;SDS011;14206;50.202;10.948;2023-03-31T11:40:44;1.80;;;0.88;;
26540;SDS011;14206;50.202;10.948;2023-03-31T11:43:35;2.95;;;1.50;;
26540;SDS011;14206;50.202;10.948;2023-03-31T11:46:07;2.25;;;0.85;;
26540;SDS011;14206;50.202;10.948;2023-03-31T11:51:38;2.15;;;0.95;;
26540;SDS011;14206;50.202;10.948;2023-03-31T12:00:19;1.77;;;0.80;;
26540;SDS011;14206;50.202;10.948;2023-03-31T12:06:03;1.27;;;0.60;;
26540;SDS011;14206;50.202;10.948;2023-03-31T12:11:52;1.88;;;0.60;;
26540;SDS011;14206;50.202;10.948;2023-03-31T12:14:40;0.90;;;0.50;;
26540;SDS011;14206;50.202;10.948;2023-03-31T12:17:14;0.70;;;0.47;;
26540;SDS011;14206;50.202;10.948;2023-03-31T12:19:49;0.93;;;0.60;;
26540;SDS011;14206;50.202;10.948;2023-03-31T12:22:23;0.88;;;0.40;;
26540;SDS011;14206;50.202;10.948;2023-03-31T12:24:53;1.48;;;0.40;;
26540;SDS011;14206;50.202;10.948;2023-03-31T12:29:56;0.82;;;0.45;;
26540;SDS011;14206;50.202;10.948;2023-03-31T12:32:26;0.93;;;0.43;;
26540;SDS011;14206;50.202;10.948;2023-03-31T12:46:03;2.60;;;1.10;;
26540;SDS011;14206;50.202;10.948;2023-03-31T12:54:58;1.95;;;0.88;;
26540;SDS011;14206;50.202;10.948;2023-03-31T12:57:46;1.50;;;0.80;;
26540;SDS011;14206;50.202;10.948;2023-03-31T13:00:20;3.63;;;0.82;;
26540;SDS011;14206;50.202;10.948;2023-03-31T13:02:50;2.72;;;0.90;;
26540;SDS011;14206;50.202;10.948;2023-03-31T13:05:43;1.63;;;0.70;;
26540;SDS011;14206;50.202;10.948;2023-03-31T13:08:47;3.83;;;0.93;;
26540;SDS011;14206;50.202;10.948;2023-03-31T13:11:15;3.08;;;0.80;;
26540;SDS011;14206;50.202;10.948;2023-03-31T13:13:45;4.38;;;1.13;;
26540;SDS011;14206;50.202;10.948;2023-03-31T13:16:26;3.72;;;0.90;;
26540;SDS011;14206;50.202;10.948;2023-03-31T13:18:54;2.33;;;0.90;;
26540;SDS011;14206;50.202;10.948;2023-03-31T13:21:22;2.28;;;0.90;;
26540;SDS011;14206;50.202;10.948;2023-03-31T13:23:49;2.55;;;0.85;;
26540;SDS011;14206;50.202;10.948;2023-03-31T13:26:39;1.95;;;0.70;;
26540;SDS011;14206;50.202;10.948;2023-03-31T13:34:28;1.65;;;0.68;;
26540;SDS011;14206;50.202;10.948;2023-03-31T13:48:10;2.75;;;0.80;;
26540;SDS011;14206;50.202;10.948;2023-03-31T13:50:52;2.10;;;0.93;;
26540;SDS011;14206;50.202;10.948;2023-03-31T13:59:12;3.10;;;1.13;;
26540;SDS011;14206;50.202;10.948;2023-03-31T14:07:19;2.08;;;0.77;;
26540;SDS011;14206;50.202;10.948;2023-03-31T14:09:52;2.95;;;0.90;;
26540;SDS011;14206;50.202;10.948;2023-03-31T14:14:47;1.98;;;0.70;;
26540;SDS011;14206;50.202;10.948;2023-03-31T14:17:25;3.05;;;1.08;;
26540;SDS011;14206;50.202;10.948;2023-03-31T14:20:08;2.05;;;0.82;;
26540;SDS011;14206;50.202;10.948;2023-03-31T14:22:54;4.47;;;0.80;;
26540;SDS011;14206;50.202;10.948;2023-03-31T14:25:36;2.40;;;0.80;;
26540;SDS011;14206;50.202;10.948;2023-03-31T14:34:12;4.45;;;1.20;;
26540;SDS011;14206;50.202;10.948;2023-03-31T14:39:24;2.83;;;1.02;;
26540;SDS011;14206;50.202;10.948;2023-03-31T14:41:55;3.70;;;1.10;;
26540;SDS011;14206;50.202;10.948;2023-03-31T14:44:25;3.60;;;1.08;;
26540;SDS011;14206;50.202;10.948;2023-03-31T14:46:54;3.05;;;1.00;;
26540;SDS011;14206;50.202;10.948;2023-03-31T14:49:27;2.67;;;0.73;;
26540;SDS011;14206;50.202;10.948;2023-03-31T14:52:00;4.45;;;1.27;;
26540;SDS011;14206;50.202;10.948;2023-03-31T14:54:34;3.80;;;0.73;;
26540;SDS011;14206;50.202;10.948;2023-03-31T14:57:06;2.03;;;1.00;;
26540;SDS011;14206;50.202;10.948;2023-03-31T14:59:33;2.90;;;1.00;;
26540;SDS011;14206;50.202;10.948;2023-03-31T15:02:02;3.00;;;1.17;;
26540;SDS011;14206;50.202;10.948;2023-03-31T15:04:32;1.52;;;0.75;;
26540;SDS011;14206;50.202;10.948;2023-03-31T15:07:10;3.20;;;0.88;;
26540;SDS011;14206;50.202;10.948;2023-03-31T15:09:37;3.70;;;0.93;;
26540;SDS011;14206;50.202;10.948;2023-03-31T15:12:07;2.60;;;0.85;;
26540;SDS011;14206;50.202;10.948;2023-03-31T15:14:39;1.60;;;0.65;;
26540;SDS011;14206;50.202;10.948;2023-03-31T15:17:29;2.15;;;1.13;;
26540;SDS011;14206;50.202;10.948;2023-03-31T15:20:16;1.85;;;0.88;;
26540;SDS011;14206;50.202;10.948;2023-03-31T15:22:49;1.15;;;0.50;;
26540;SDS011;14206;50.202;10.948;2023-03-31T15:25:16;1.45;;;0.77;;
26540;SDS011;14206;50.202;10.948;2023-03-31T15:27:51;1.05;;;0.70;;
26540;SDS011;14206;50.202;10.948;2023-03-31T15:30:22;1.30;;;0.50;;
26540;SDS011;14206;50.202;10.948;2023-03-31T15:32:50;0.52;;;0.40;;
26540;SDS011;14206;50.202;10.948;2023-03-31T15:35:29;1.38;;;0.30;;
26540;SDS011;14206;50.202;10.948;2023-03-31T15:37:59;1.42;;;0.50;;
26540;SDS011;14206;50.202;10.948;2023-03-31T15:40:30;0.73;;;0.38;;
26540;SDS011;14206;50.202;10.948;2023-03-31T15:43:05;0.95;;;0.40;;
26540;SDS011;14206;50.202;10.948;2023-03-31T15:45:51;0.40;;;0.30;;
26540;SDS011;14206;50.202;10.948;2023-03-31T15:48:32;0.90;;;0.30;;
26540;SDS011;14206;50.202;10.948;2023-03-31T15:51:05;1.08;;;0.40;;
26540;SDS011;14206;50.202;10.948;2023-03-31T15:53:43;0.57;;;0.43;;
26540;SDS011;14206;50.202;10.948;2023-03-31T16:01:22;1.60;;;0.60;;
26540;SDS011;14206;50.202;10.948;2023-03-31T16:03:52;1.58;;;0.60;;
26540;SDS011;14206;50.202;10.948;2023-03-31T16:06:21;1.77;;;0.85;;
26540;SDS011;14206;50.202;10.948;2023-03-31T16:09:05;3.17;;;0.90;;
26540;SDS011;14206;50.202;10.948;2023-03-31T16:11:39;1.83;;;0.70;;
26540;SDS011;14206;50.202;10.948;2023-03-31T16:14:18;1.95;;;0.60;;
26540;SDS011;14206;50.202;10.948;2023-03-31T16:16:53;1.52;;;0.68;;
26540;SDS011;14206;50.202;10.948;2023-03-31T16:19:27;2.95;;;0.77;;
26540;SDS011;14206;50.202;10.948;2023-03-31T16:22:03;0.95;;;0.45;;
26540;SDS011;14206;50.202;10.948;2023-03-31T16:24:31;2.00;;;0.65;;
26540;SDS011;14206;50.202;10.948;2023-03-31T16:27:03;1.85;;;0.60;;
26540;SDS011;14206;50.202;10.948;2023-03-31T16:29:33;1.58;;;0.60;;
26540;SDS011;14206;50.202;10.948;2023-03-31T16:32:09;4.03;;;0.70;;
26540;SDS011;14206;50.202;10.948;2023-03-31T16:34:50;2.20;;;0.70;;
26540;SDS011;14206;50.202;10.948;2023-03-31T16:37:22;2.45;;;0.70;;
26540;SDS011;14206;50.202;10.948;2023-03-31T16:39:49;0.90;;;0.50;;
26540;SDS011;14206;50.202;10.948;2023-03-31T16:42:17;2.63;;;0.60;;
26540;SDS011;14206;50.202;10.948;2023-03-31T16:44:45;2.20;;;0.55;;
26540;SDS011;14206;50.202;10.948;2023-03-31T16:47:25;3.72;;;1.00;;
26540;SDS011;14206;50.202;10.948;2023-03-31T16:50:02;3.08;;;0.93;;
26540;SDS011;14206;50.202;10.948;2023-03-31T16:52:32;1.52;;;0.60;;
26540;SDS011;14206;50.202;10.948;2023-03-31T16:55:00;1.58;;;0.70;;
26540;SDS011;14206;50.202;10.948;2023-03-31T16:57:27;1.02;;;0.60;;
26540;SDS011;14206;50.202;10.948;2023-03-31T16:59:53;1.23;;;0.68;;
26540;SDS011;14206;50.202;10.948;2023-03-31T17:02:24;1.77;;;0.75;;
26540;SDS011;14206;50.202;10.948;2023-03-31T17:04:50;2.55;;;0.50;;
26540;SDS011;14206;50.202;10.948;2023-03-31T17:07:21;1.20;;;0.60;;
26540;SDS011;14206;50.202;10.948;2023-03-31T17:09:48;0.40;;;0.40;;
26540;SDS011;14206;50.202;10.948;2023-03-31T17:12:15;1.27;;;0.65;;
26540;SDS011;14206;50.202;10.948;2023-03-31T17:14:44;1.27;;;0.80;;
26540;SDS011;14206;50.202;10.948;2023-03-31T17:17:11;1.60;;;0.77;;
26540;SDS011;14206;50.202;10.948;2023-03-31T17:19:39;1.05;;;0.50;;
26540;SDS011;14206;50.202;10.948;2023-03-31T17:22:07;2.47;;;0.68;;
26540;SDS011;14206;50.202;10.948;2023-03-31T17:24:33;1.20;;;0.60;;
26540;SDS011;14206;50.202;10.948;2023-03-31T17:27:00;1.65;;;0.70;;
26540;SDS011;14206;50.202;10.948;2023-03-31T17:29:27;1.20;;;0.60;;
26540;SDS011;14206;50.202;10.948;2023-03-31T17:31:54;2.58;;;1.00;;
26540;SDS011;14206;50.202;10.948;2023-03-31T17:34:21;2.05;;;0.70;;
26540;SDS011;14206;50.202;10.948;2023-03-31T17:36:48;1.50;;;0.70;;
26540;SDS011;14206;50.202;10.948;2023-03-31T17:39:17;1.55;;;0.73;;
26540;SDS011;14206;50.202;10.948;2023-03-31T17:41:43;1.20;;;0.70;;
26540;SDS011;14206;50.202;10.948;2023-03-31T17:44:10;0.90;;;0.50;;
26540;SDS011;14206;50.202;10.948;2023-03-31T17:46:37;1.52;;;0.40;;
26540;SDS011;14206;50.202;10.948;2023-03-31T17:49:04;1.25;;;0.50;;
26540;SDS011;14206;50.202;10.948;2023-03-31T17:51:31;1.55;;;0.50;;
26540;SDS011;14206;50.202;10.948;2023-03-31T17:53:59;3.15;;;0.50;;